Time;durP1;ratioP1;P1;durP2;ratioP2;P2;SDS_P1;SDS_P2;PMS_P1;PMS_P2;Temp;Humidity;BMP_temperature;BMP_pressure;BME280_temperature;BME280_humidity;BME280_pressure;Samples;Min_cycle;Max_cycle;Signal;HPM_P1;HPM_P2
2022/09/20 00:01:07;;;;;;;2.33;0.90;;;14.60;94.60;;;;;;5044688;28;20043;-79
2022/09/20 00:03:35;;;;;;;2.10;1.00;;;14.60;94.70;;;;;;5055253;28;20035;-79
2022/09/20 00:06:02;;;;;;;1.40;0.70;;;14.50;95.00;;;;;;5048142;28;20557;-79
2022/09/20 00:08:28;;;;;;;1.40;0.80;;;14.50;94.60;;;;;;5061340;28;20078;-79
2022/09/20 00:11:02;;;;;;;1.55;0.70;;;14.50;94.50;;;;;;5052749;28;20028;-79
2022/09/20 00:13:28;;;;;;;1.40;0.70;;;14.40;94.40;;;;;;5058719;28;20023;-79
2022/09/20 00:15:54;;;;;;;1.55;0.70;;;14.40;94.40;;;;;;5063862;28;20809;-79
2022/09/20 00:18:20;;;;;;;2.03;0.70;;;14.30;94.40;;;;;;5066557;28;20511;-79
2022/09/20 00:20:46;;;;;;;0.70;0.60;;;14.30;94.40;;;;;;5036884;28;20039;-79
2022/09/20 00:23:13;;;;;;;1.45;0.52;;;14.20;94.30;;;;;;5052794;28;20028;-79
2022/09/20 00:25:39;;;;;;;0.82;0.70;;;14.20;94.30;;;;;;5069761;28;20339;-79
2022/09/20 00:28:05;;;;;;;1.17;0.60;;;14.10;94.40;;;;;;5070055;28;20028;-79
2022/09/20 00:30:34;;;;;;;0.65;0.60;;;14.10;94.50;;;;;;5038776;28;20039;-79
2022/09/20 00:33:00;;;;;;;0.93;0.65;;;14.00;94.70;;;;;;5047710;28;20578;-79
2022/09/20 00:35:26;;;;;;;0.70;0.60;;;14.00;95.00;;;;;;5073744;28;20040;-79
2022/09/20 00:37:51;;;;;;;1.45;0.60;;;14.00;95.20;;;;;;5052889;28;20273;-79
2022/09/20 00:40:20;;;;;;;0.70;0.63;;;14.00;95.40;;;;;;5061883;28;20119;-79
2022/09/20 00:42:46;;;;;;;1.00;0.63;;;14.00;95.50;;;;;;5058873;28;20557;-79
2022/09/20 00:45:29;;;;;;;0.60;0.60;;;14.00;95.60;;;;;;5067991;28;20141;-79
2022/09/20 00:48:15;;;;;;;1.38;0.70;;;14.00;95.60;;;;;;5048887;28;20051;-79
2022/09/20 00:50:52;;;;;;;2.42;0.70;;;14.00;95.90;;;;;;5044479;28;20028;-79
2022/09/20 00:53:25;;;;;;;1.20;0.60;;;14.00;95.50;;;;;;5038025;28;20078;-79
2022/09/20 00:56:07;;;;;;;1.53;0.50;;;14.00;95.50;;;;;;5095691;27;20369;-79
2022/09/20 00:58:38;;;;;;;1.40;0.70;;;13.90;95.30;;;;;;5077038;28;20024;-79
2022/09/20 01:01:05;;;;;;;1.23;0.68;;;14.00;95.40;;;;;;5062146;28;20413;-79
2022/09/20 01:03:33;;;;;;;1.52;0.68;;;13.90;95.40;;;;;;5072501;28;20024;-79
2022/09/20 01:06:04;;;;;;;2.22;0.70;;;13.90;95.50;;;;;;5071355;28;20112;-79
2022/09/20 01:08:31;;;;;;;1.00;0.63;;;13.90;95.60;;;;;;5063627;28;20020;-79
2022/09/20 01:10:57;;;;;;;1.50;0.63;;;13.90;95.80;;;;;;5083707;28;20035;-79
2022/09/20 01:13:23;;;;;;;1.88;0.82;;;13.90;96.00;;;;;;5055910;28;21026;-79
2022/09/20 01:15:50;;;;;;;1.00;0.60;;;13.90;96.10;;;;;;5068955;28;20034;-79
2022/09/20 01:18:18;;;;;;;1.50;0.57;;;13.90;96.30;;;;;;5069953;28;20131;-79
2022/09/20 01:20:45;;;;;;;1.10;0.65;;;13.90;96.40;;;;;;5067703;28;20066;-79
2022/09/20 01:23:29;;;;;;;1.80;0.70;;;13.90;96.40;;;;;;5066201;28;20432;-79
2022/09/20 01:26:20;;;;;;;1.30;0.70;;;13.90;96.60;;;;;;5062485;28;20439;-79
2022/09/20 01:28:47;;;;;;;1.73;0.60;;;14.00;96.50;;;;;;5045635;28;20020;-79
2022/09/20 01:31:30;;;;;;;1.75;0.80;;;14.00;96.70;;;;;;5063633;28;20736;-79
2022/09/20 01:34:05;;;;;;;2.17;0.70;;;14.00;96.60;;;;;;5064437;28;20028;-79
2022/09/20 01:36:49;;;;;;;1.73;0.80;;;14.00;96.70;;;;;;5071235;28;20027;-79
2022/09/20 01:39:39;;;;;;;1.13;0.73;;;14.00;96.80;;;;;;5054242;28;20571;-79
2022/09/20 01:42:08;;;;;;;2.10;0.90;;;14.00;96.70;;;;;;5073750;28;20244;-79
2022/09/20 01:44:56;;;;;;;2.58;1.00;;;14.00;96.90;;;;;;5071853;28;20013;-79
2022/09/20 01:47:31;;;;;;;1.35;0.85;;;14.00;97.00;;;;;;5036571;28;20044;-79
2022/09/20 01:50:18;;;;;;;1.45;0.90;;;14.10;97.00;;;;;;5072112;28;20031;-79
2022/09/20 01:52:58;;;;;;;3.13;1.03;;;14.10;97.10;;;;;;5075492;28;20031;-79
2022/09/20 01:55:27;;;;;;;1.50;0.90;;;14.10;97.10;;;;;;5058114;28;20121;-79
2022/09/20 01:58:08;;;;;;;1.92;0.95;;;14.10;97.20;;;;;;5071404;28;20058;-79
2022/09/20 02:00:57;;;;;;;2.42;0.95;;;14.10;97.20;;;;;;5071676;28;20035;-79
2022/09/20 02:04:03;;;;;;;2.13;1.00;;;14.10;97.30;;;;;;5058549;28;20093;-79
2022/09/20 02:06:45;;;;;;;1.47;0.73;;;14.10;97.30;;;;;;5072934;28;20032;-79
2022/09/20 02:09:32;;;;;;;2.40;0.85;;;14.10;97.50;;;;;;5064744;28;20036;-79
2022/09/20 02:12:16;;;;;;;1.50;0.90;;;14.20;97.60;;;;;;5060328;28;20389;-79
2022/09/20 02:15:29;;;;;;;2.55;1.00;;;14.20;97.60;;;;;;5068813;28;20541;-79
2022/09/20 02:18:10;;;;;;;2.15;1.15;;;14.20;97.50;;;;;;4995914;28;20069;-79
2022/09/20 02:21:02;;;;;;;1.83;1.00;;;14.20;97.90;;;;;;4972615;28;20029;-79
2022/09/20 02:23:36;;;;;;;1.63;1.13;;;14.30;97.80;;;;;;5016151;28;20275;-79
2022/09/20 02:26:14;;;;;;;2.33;1.15;;;14.30;98.00;;;;;;5069296;28;20023;-79
2022/09/20 02:29:16;;;;;;;2.08;1.13;;;14.30;97.90;;;;;;5061255;28;20030;-79
2022/09/20 02:32:03;;;;;;;2.30;1.20;;;14.30;97.80;;;;;;5080270;28;20309;-79
2022/09/20 02:35:00;;;;;;;2.63;1.17;;;14.40;97.80;;;;;;5085447;27;20039;-79
2022/09/20 02:37:53;;;;;;;2.42;1.40;;;14.40;97.90;;;;;;5056856;28;20063;-79
2022/09/20 02:40:28;;;;;;;1.80;1.17;;;14.40;97.90;;;;;;5060699;28;20260;-79
2022/09/20 02:43:12;;;;;;;2.45;1.58;;;14.40;97.90;;;;;;5076558;28;20020;-79
2022/09/20 02:45:55;;;;;;;2.17;1.15;;;14.40;98.00;;;;;;5082837;28;20032;-79
2022/09/20 02:48:28;;;;;;;2.37;1.30;;;14.40;97.70;;;;;;5079322;28;20175;-79
2022/09/20 02:51:15;;;;;;;3.17;1.20;;;14.40;97.90;;;;;;5069846;28;20084;-79
2022/09/20 02:53:59;;;;;;;2.90;1.40;;;14.40;97.70;;;;;;5063459;28;20025;-80
2022/09/20 02:56:46;;;;;;;2.00;1.38;;;14.30;97.90;;;;;;5083481;28;20042;-79
2022/09/20 02:59:45;;;;;;;1.77;1.30;;;14.40;97.80;;;;;;5064818;28;25045;-79
2022/09/20 03:02:38;;;;;;;2.33;1.30;;;14.30;97.80;;;;;;5070495;28;20238;-80
2022/09/20 03:05:20;;;;;;;2.55;1.27;;;14.30;97.90;;;;;;5072301;28;20085;-79
2022/09/20 03:08:00;;;;;;;3.30;1.40;;;14.30;98.00;;;;;;5098454;28;20022;-79
2022/09/20 03:10:58;;;;;;;3.13;1.40;;;14.30;97.90;;;;;;5047875;28;20132;-79
2022/09/20 03:13:51;;;;;;;2.78;1.50;;;14.30;97.90;;;;;;5065118;28;20208;-79
2022/09/20 03:16:45;;;;;;;3.10;1.60;;;14.30;97.80;;;;;;5050182;28;20292;-80
2022/09/20 03:19:50;;;;;;;2.42;1.40;;;14.30;97.90;;;;;;5068156;28;20024;-79
2022/09/20 03:22:34;;;;;;;3.05;1.55;;;14.30;97.80;;;;;;5071445;27;20205;-79
2022/09/20 03:25:05;;;;;;;3.65;1.60;;;14.20;98.00;;;;;;5061910;28;20031;-80
2022/09/20 03:27:48;;;;;;;3.50;1.58;;;14.30;98.10;;;;;;5056427;28;20543;-80
2022/09/20 03:30:26;;;;;;;2.90;1.30;;;14.20;98.10;;;;;;5055524;28;20316;-79
2022/09/20 03:33:15;;;;;;;2.35;1.60;;;14.20;98.20;;;;;;5059237;28;20036;-79
2022/09/20 03:36:03;;;;;;;3.17;1.48;;;14.20;98.20;;;;;;5078218;28;20523;-79
2022/09/20 03:38:47;;;;;;;4.82;1.77;;;14.20;98.20;;;;;;5071844;28;20450;-79
2022/09/20 03:41:15;;;;;;;2.33;1.38;;;14.20;98.40;;;;;;5072581;27;20661;-79
2022/09/20 03:43:56;;;;;;;5.10;1.67;;;14.20;98.40;;;;;;5038914;28;20028;-79
2022/09/20 03:46:58;;;;;;;2.47;1.20;;;14.20;98.30;;;;;;5053626;28;20189;-79
2022/09/20 03:49:45;;;;;;;2.90;1.52;;;14.20;98.40;;;;;;5060122;28;20309;-79
2022/09/20 03:52:16;;;;;;;2.85;1.48;;;14.20;98.40;;;;;;5063178;28;20428;-79
2022/09/20 03:55:07;;;;;;;1.85;1.42;;;14.20;98.50;;;;;;5052329;28;20028;-79
2022/09/20 03:57:57;;;;;;;2.07;1.33;;;14.20;98.40;;;;;;5060561;28;20036;-79
2022/09/20 04:00:29;;;;;;;3.08;1.50;;;14.20;98.40;;;;;;5042780;28;20039;-79
2022/09/20 04:03:07;;;;;;;3.00;1.38;;;14.20;98.60;;;;;;5036508;28;20047;-79
2022/09/20 04:05:42;;;;;;;2.90;1.48;;;14.20;98.50;;;;;;5059858;28;20043;-79
2022/09/20 04:08:26;;;;;;;3.38;1.50;;;14.20;98.50;;;;;;5072375;28;20114;-79
2022/09/20 04:11:08;;;;;;;2.03;1.30;;;14.20;98.40;;;;;;5074116;28;20020;-79
2022/09/20 04:13:34;;;;;;;2.70;1.50;;;14.20;98.40;;;;;;5081089;27;20035;-79
2022/09/20 04:16:24;;;;;;;2.88;1.50;;;14.20;98.50;;;;;;5084481;28;20119;-79
2022/09/20 04:19:15;;;;;;;2.28;1.50;;;14.20;98.40;;;;;;5057310;28;20119;-81
2022/09/20 04:21:50;;;;;;;4.20;1.93;;;14.10;98.30;;;;;;5055114;28;20077;-81
2022/09/20 04:24:39;;;;;;;4.78;2.22;;;14.10;98.60;;;;;;5041394;28;20043;-80
2022/09/20 04:27:33;;;;;;;4.20;2.58;;;14.10;98.70;;;;;;5059635;28;20382;-80
2022/09/20 04:30:06;;;;;;;3.75;2.70;;;14.10;98.80;;;;;;5048810;28;20086;-79
2022/09/20 04:32:53;;;;;;;4.53;2.90;;;14.10;99.00;;;;;;5063976;28;20033;-79
2022/09/20 04:38:19;;;;;;;4.95;2.92;;;14.10;99.20;;;;;;5075753;28;20055;-79
2022/09/20 04:41:04;;;;;;;5.32;3.35;;;14.10;99.20;;;;;;5068591;28;20491;-79
2022/09/20 04:44:15;;;;;;;4.03;3.03;;;14.20;99.30;;;;;;5069836;28;20082;-79
2022/09/20 04:47:10;;;;;;;6.57;3.20;;;14.20;99.00;;;;;;5072154;28;20681;-79
2022/09/20 04:49:45;;;;;;;4.33;2.90;;;14.20;98.90;;;;;;5058347;28;20122;-80
2022/09/20 04:52:16;;;;;;;4.40;3.15;;;14.20;99.00;;;;;;5085635;28;20035;-79
2022/09/20 04:54:54;;;;;;;3.65;3.08;;;14.20;98.70;;;;;;5063949;27;20710;-79
2022/09/20 04:58:00;;;;;;;3.90;2.80;;;14.20;98.70;;;;;;5069559;28;20028;-79
2022/09/20 05:00:41;;;;;;;5.18;2.80;;;14.10;98.30;;;;;;5056156;28;20125;-79
2022/09/20 05:03:57;;;;;;;4.97;2.70;;;14.10;98.40;;;;;;5048266;28;20034;-79
2022/09/20 05:06:55;;;;;;;3.90;2.50;;;14.00;98.10;;;;;;5076686;28;20028;-79
2022/09/20 05:09:52;;;;;;;4.97;2.60;;;14.00;98.00;;;;;;5061761;28;20024;-79
2022/09/20 05:12:41;;;;;;;3.47;2.45;;;13.90;97.80;;;;;;5058183;28;20025;-79
2022/09/20 05:15:25;;;;;;;3.65;2.63;;;13.90;97.70;;;;;;5067209;28;20342;-79
2022/09/20 05:18:09;;;;;;;4.13;2.53;;;13.80;97.60;;;;;;5066726;27;20091;-79
2022/09/20 05:21:09;;;;;;;3.72;2.45;;;13.80;97.70;;;;;;5052508;28;20032;-79
2022/09/20 05:24:13;;;;;;;3.55;2.50;;;13.70;97.50;;;;;;5053699;28;20081;-80
2022/09/20 05:26:59;;;;;;;3.15;2.25;;;13.60;97.40;;;;;;5058506;28;20085;-79
2022/09/20 05:29:30;;;;;;;3.50;2.50;;;13.60;97.50;;;;;;5062601;28;20064;-79
2022/09/20 05:32:17;;;;;;;3.10;2.33;;;13.50;97.50;;;;;;5064773;28;20033;-79
2022/09/20 05:35:05;;;;;;;4.03;2.25;;;13.40;97.50;;;;;;5051413;28;20031;-79
2022/09/20 05:38:01;;;;;;;3.03;2.40;;;13.40;97.50;;;;;;5044151;28;20059;-79
2022/09/20 05:40:44;;;;;;;3.67;2.38;;;13.30;97.50;;;;;;5067304;28;20042;-79
2022/09/20 05:43:25;;;;;;;3.78;2.45;;;13.30;97.60;;;;;;5058119;28;20157;-79
2022/09/20 05:45:56;;;;;;;2.93;2.17;;;13.30;97.70;;;;;;5062296;28;20262;-79
2022/09/20 05:48:36;;;;;;;3.33;2.40;;;13.20;97.70;;;;;;5066511;28;20097;-79
2022/09/20 05:51:14;;;;;;;3.47;2.28;;;13.20;97.70;;;;;;5082520;28;20342;-79
2022/09/20 05:54:04;;;;;;;3.45;2.47;;;13.10;97.60;;;;;;5045507;28;20039;-81
2022/09/20 05:57:03;;;;;;;3.95;2.28;;;13.10;97.70;;;;;;5069078;28;20412;-81
2022/09/20 05:59:57;;;;;;;3.37;2.20;;;13.10;97.90;;;;;;5070082;28;20214;-81
2022/09/20 06:02:50;;;;;;;2.35;1.67;;;13.00;98.10;;;;;;5042331;28;20400;-81
2022/09/20 06:05:31;;;;;;;3.67;1.98;;;13.00;98.40;;;;;;5051546;28;20385;-81
2022/09/20 06:08:25;;;;;;;2.85;2.00;;;13.00;98.90;;;;;;5025853;28;20229;-81
2022/09/20 06:11:01;;;;;;;3.80;1.73;;;13.10;99.10;;;;;;5037450;28;20032;-81
2022/09/20 06:14:02;;;;;;;3.43;1.60;;;13.10;99.40;;;;;;5071663;28;20023;-79
2022/09/20 06:16:43;;;;;;;3.42;1.70;;;13.20;99.40;;;;;;5069647;28;20095;-79
2022/09/20 06:19:30;;;;;;;2.58;1.75;;;13.20;99.60;;;;;;5058566;28;20039;-79
2022/09/20 06:22:02;;;;;;;2.85;1.67;;;13.30;99.60;;;;;;5043413;28;20117;-79
2022/09/20 06:24:50;;;;;;;2.80;1.63;;;13.30;99.70;;;;;;5046997;28;20118;-80
2022/09/20 06:27:29;;;;;;;2.43;1.60;;;13.40;99.40;;;;;;5039816;28;20134;-79
2022/09/20 06:30:00;;;;;;;3.05;1.70;;;13.40;99.40;;;;;;5067401;28;20039;-79
2022/09/20 06:32:26;;;;;;;2.67;1.50;;;13.40;99.70;;;;;;5053281;28;20511;-80
2022/09/20 06:34:53;;;;;;;3.15;1.50;;;13.40;99.40;;;;;;5050868;28;20029;-79
2022/09/20 06:43:28;;;;;;;3.20;1.70;;;13.50;99.20;;;;;;5058019;28;20055;-79
2022/09/20 06:45:53;;;;;;;3.00;1.75;;;13.50;99.50;;;;;;5058655;28;20120;-79
2022/09/20 06:48:19;;;;;;;3.73;1.50;;;13.50;99.50;;;;;;5054048;28;20052;-79
2022/09/20 06:50:45;;;;;;;3.83;1.67;;;13.50;99.90;;;;;;5062514;27;20252;-79
2022/09/20 06:53:16;;;;;;;2.27;1.53;;;13.50;99.70;;;;;;5036549;28;21269;-79
2022/09/20 06:55:43;;;;;;;2.65;1.73;;;13.60;99.70;;;;;;5032236;28;20032;-79
2022/09/20 06:58:10;;;;;;;2.58;1.80;;;13.60;99.70;;;;;;5057520;28;20028;-80
2022/09/20 07:00:38;;;;;;;3.33;1.85;;;13.60;99.80;;;;;;5047667;28;20030;-79
2022/09/20 07:03:04;;;;;;;4.00;1.80;;;13.60;99.80;;;;;;5057479;28;20493;-79
2022/09/20 07:05:30;;;;;;;4.17;1.67;;;13.70;99.90;;;;;;5060429;28;20024;-80
2022/09/20 07:07:57;;;;;;;3.10;1.73;;;13.70;99.90;;;;;;5053796;28;20078;-79
2022/09/20 07:10:26;;;;;;;3.10;1.75;;;13.80;99.90;;;;;;5047649;28;20073;-79
2022/09/20 07:12:58;;;;;;;3.08;1.80;;;13.80;99.90;;;;;;5049651;28;20054;-79
2022/09/20 07:15:24;;;;;;;2.70;1.73;;;13.80;99.90;;;;;;5069249;28;20020;-80
2022/09/20 07:17:50;;;;;;;3.30;1.80;;;13.90;99.90;;;;;;5048657;28;20054;-80
2022/09/20 07:20:16;;;;;;;4.25;2.00;;;14.00;99.90;;;;;;5056094;28;20397;-79
2022/09/20 07:22:42;;;;;;;3.25;1.73;;;14.10;99.90;;;;;;5038045;28;20038;-79
2022/09/20 07:25:08;;;;;;;2.87;1.60;;;14.20;99.90;;;;;;5054975;28;20016;-79
2022/09/20 07:27:33;;;;;;;2.75;1.80;;;14.20;99.90;;;;;;5033061;28;20393;-79
2022/09/20 07:29:59;;;;;;;3.37;1.80;;;14.30;99.90;;;;;;5062988;28;20324;-79
2022/09/20 07:32:25;;;;;;;4.25;1.77;;;14.40;99.90;;;;;;5057486;28;20366;-79
2022/09/20 07:34:51;;;;;;;3.30;1.70;;;14.50;99.90;;;;;;5055542;28;20401;-79
2022/09/20 07:37:18;;;;;;;3.72;1.77;;;14.60;99.90;;;;;;5079476;28;20027;-80
2022/09/20 07:39:44;;;;;;;4.47;1.98;;;14.70;99.90;;;;;;5034809;28;20643;-80
2022/09/20 07:42:11;;;;;;;3.65;1.90;;;14.80;99.90;;;;;;5048274;28;20027;-80
2022/09/20 07:44:39;;;;;;;3.53;1.90;;;14.80;99.90;;;;;;5040832;28;20045;-79
2022/09/20 07:47:05;;;;;;;3.90;1.80;;;15.00;99.90;;;;;;5061243;28;20045;-79
2022/09/20 07:49:31;;;;;;;3.42;2.00;;;15.10;99.90;;;;;;5076495;28;20090;-80
2022/09/20 07:51:57;;;;;;;4.07;1.90;;;15.10;99.90;;;;;;5068990;28;20032;-80
2022/09/20 07:54:23;;;;;;;3.67;1.92;;;15.20;99.90;;;;;;5063012;28;20024;-79
2022/09/20 07:56:49;;;;;;;4.17;1.73;;;15.20;99.90;;;;;;5053039;28;20040;-80
2022/09/20 07:59:15;;;;;;;3.87;1.67;;;15.30;99.90;;;;;;5057657;28;20370;-79
2022/09/20 08:01:42;;;;;;;3.28;1.98;;;15.40;99.90;;;;;;5059045;28;20028;-79
2022/09/20 08:04:08;;;;;;;3.90;1.92;;;15.50;99.90;;;;;;5057434;28;20233;-80
2022/09/20 08:06:42;;;;;;;2.70;1.85;;;15.50;99.90;;;;;;5058865;28;20032;-80
2022/09/20 08:09:08;;;;;;;5.60;2.25;;;15.50;99.90;;;;;;5059711;28;20301;-80
2022/09/20 08:11:37;;;;;;;4.33;2.13;;;15.50;99.90;;;;;;5024881;28;20027;-79
2022/09/20 08:14:03;;;;;;;3.92;1.80;;;15.60;99.90;;;;;;5068976;28;20046;-80
2022/09/20 08:16:30;;;;;;;4.82;1.90;;;15.60;99.90;;;;;;5061996;28;20074;-80
2022/09/20 08:19:01;;;;;;;3.83;1.80;;;15.70;99.90;;;;;;5055639;28;20660;-79
2022/09/20 08:21:30;;;;;;;3.15;1.83;;;15.70;99.90;;;;;;5061633;28;20136;-80
2022/09/20 08:23:56;;;;;;;3.30;1.80;;;15.70;99.90;;;;;;5035382;28;20025;-79
2022/09/20 08:26:23;;;;;;;4.18;1.88;;;15.80;99.90;;;;;;5056440;28;20515;-80
2022/09/20 08:28:55;;;;;;;2.92;1.80;;;15.80;99.90;;;;;;5054711;28;20016;-79
2022/09/20 08:31:23;;;;;;;5.18;1.88;;;15.90;99.90;;;;;;5069077;28;20023;-80
2022/09/20 08:33:49;;;;;;;2.70;1.90;;;15.90;99.90;;;;;;5053503;28;20114;-80
2022/09/20 08:36:21;;;;;;;3.50;1.80;;;15.90;99.90;;;;;;5042881;28;20272;-80
2022/09/20 08:38:48;;;;;;;3.05;1.70;;;16.00;99.90;;;;;;5064360;28;20015;-79
2022/09/20 08:41:14;;;;;;;4.55;1.75;;;16.00;99.90;;;;;;5053662;28;21165;-80
2022/09/20 08:43:50;;;;;;;3.75;1.98;;;16.00;99.90;;;;;;5057674;28;20020;-79
2022/09/20 08:46:19;;;;;;;4.50;2.05;;;16.10;99.90;;;;;;5050617;28;20239;-80
2022/09/20 08:48:45;;;;;;;3.70;1.97;;;16.20;99.90;;;;;;5053559;28;20151;-79
2022/09/20 08:51:17;;;;;;;3.70;1.90;;;16.20;99.90;;;;;;5054944;28;20060;-80
2022/09/20 08:53:54;;;;;;;3.10;1.88;;;16.30;99.90;;;;;;5060837;28;20099;-80
2022/09/20 08:56:21;;;;;;;3.33;1.85;;;16.50;99.90;;;;;;5053130;28;20076;-80
2022/09/20 08:58:47;;;;;;;5.28;1.92;;;16.60;99.90;;;;;;5041879;28;20511;-80
2022/09/20 09:01:23;;;;;;;4.10;1.93;;;16.70;99.90;;;;;;5057696;28;20487;-80
2022/09/20 09:04:00;;;;;;;3.47;1.85;;;16.80;99.90;;;;;;5067426;28;20035;-80
2022/09/20 09:06:26;;;;;;;2.80;1.73;;;16.90;99.90;;;;;;5062068;28;20025;-80
2022/09/20 09:08:58;;;;;;;3.25;1.83;;;16.90;99.90;;;;;;5042560;28;20542;-80
2022/09/20 09:11:24;;;;;;;5.20;2.00;;;17.10;99.90;;;;;;5055542;28;20077;-80
2022/09/20 09:13:55;;;;;;;4.43;1.85;;;17.10;99.90;;;;;;5032981;28;20028;-81
2022/09/20 09:16:24;;;;;;;4.95;2.30;;;17.20;99.90;;;;;;5067649;28;20135;-80
2022/09/20 09:18:50;;;;;;;3.70;2.00;;;17.40;99.90;;;;;;5041982;28;20055;-81
2022/09/20 09:21:24;;;;;;;4.95;2.13;;;17.50;99.90;;;;;;5067622;28;20024;-80
2022/09/20 09:23:53;;;;;;;3.65;1.90;;;17.70;99.90;;;;;;5075141;28;20064;-80
2022/09/20 09:26:23;;;;;;;5.07;2.03;;;17.80;99.90;;;;;;5060177;28;20039;-80
2022/09/20 09:29:11;;;;;;;3.67;1.83;;;18.00;99.90;;;;;;5034541;28;20267;-81
2022/09/20 09:31:38;;;;;;;2.93;1.80;;;18.10;99.80;;;;;;5041673;28;20114;-80
2022/09/20 09:34:04;;;;;;;3.15;1.92;;;18.20;99.90;;;;;;5053082;28;20562;-81
2022/09/20 09:36:32;;;;;;;5.43;1.95;;;18.30;99.90;;;;;;5060292;28;20021;-81
2022/09/20 09:39:23;;;;;;;4.80;2.00;;;18.40;99.90;;;;;;5051093;28;20114;-80
2022/09/20 09:41:49;;;;;;;3.38;1.80;;;18.50;99.60;;;;;;5037833;28;20032;-80
2022/09/20 09:44:31;;;;;;;4.57;2.10;;;18.60;99.90;;;;;;5051809;28;20024;-81
2022/09/20 09:46:57;;;;;;;3.53;2.20;;;18.70;99.90;;;;;;5047336;28;20165;-80
2022/09/20 09:49:35;;;;;;;3.50;2.00;;;18.80;99.90;;;;;;5064245;28;20090;-81
2022/09/20 09:52:13;;;;;;;3.22;1.92;;;18.90;99.60;;;;;;5068432;28;20032;-80
2022/09/20 09:54:50;;;;;;;4.00;2.10;;;19.00;99.10;;;;;;5047982;28;20704;-81
2022/09/20 09:57:50;;;;;;;3.73;2.00;;;19.00;98.70;;;;;;5061131;28;20028;-81
2022/09/20 10:00:20;;;;;;;2.95;1.80;;;19.10;97.70;;;;;;5046084;28;20111;-81
2022/09/20 10:03:13;;;;;;;3.35;1.90;;;19.00;98.80;;;;;;5038745;28;20022;-81
2022/09/20 10:06:00;;;;;;;3.00;1.80;;;19.00;97.80;;;;;;5048365;28;20131;-80
2022/09/20 10:08:29;;;;;;;3.63;1.70;;;18.90;98.40;;;;;;5069569;28;20067;-80
2022/09/20 10:11:00;;;;;;;3.87;1.90;;;18.90;98.50;;;;;;5057410;28;20035;-81
2022/09/20 10:13:45;;;;;;;3.88;1.90;;;18.90;99.00;;;;;;5058366;28;20016;-81
2022/09/20 10:16:16;;;;;;;3.45;2.00;;;18.80;99.00;;;;;;5047137;28;20029;-81
2022/09/20 10:19:23;;;;;;;3.78;1.90;;;18.80;98.40;;;;;;5043524;28;20093;-80
2022/09/20 10:22:11;;;;;;;3.72;2.05;;;18.90;97.70;;;;;;5063874;28;20028;-80
2022/09/20 10:25:06;;;;;;;4.30;1.90;;;18.80;98.90;;;;;;5061507;28;20063;-81
2022/09/20 10:27:40;;;;;;;2.65;1.60;;;18.90;98.30;;;;;;5081659;27;20060;-80
2022/09/20 10:30:19;;;;;;;3.72;1.60;;;19.00;99.80;;;;;;5028108;28;20736;-80
2022/09/20 10:32:58;;;;;;;2.25;1.30;;;19.10;98.50;;;;;;5053012;28;20067;-81
2022/09/20 10:35:54;;;;;;;3.05;1.73;;;19.20;98.40;;;;;;5063056;28;20461;-81
2022/09/20 10:38:22;;;;;;;3.37;1.77;;;19.30;98.40;;;;;;5056795;28;20033;-81
2022/09/20 10:44:17;;;;;;;3.70;1.98;;;19.40;98.20;;;;;;5055843;28;20733;-81
2022/09/20 10:47:05;;;;;;;2.90;1.70;;;19.50;98.20;;;;;;5037114;28;20027;-80
2022/09/20 10:49:34;;;;;;;4.13;1.77;;;19.60;99.10;;;;;;5040238;28;20240;-80
2022/09/20 10:52:10;;;;;;;2.87;1.40;;;19.70;98.70;;;;;;5063861;28;20532;-81
2022/09/20 10:54:55;;;;;;;2.80;1.50;;;19.70;98.00;;;;;;5056860;28;20032;-81
2022/09/20 10:57:37;;;;;;;2.63;1.50;;;19.70;96.70;;;;;;5034189;28;20111;-82
2022/09/20 11:00:41;;;;;;;3.45;1.50;;;19.70;98.10;;;;;;5054955;28;20229;-81
2022/09/20 11:03:52;;;;;;;3.60;1.50;;;19.80;97.00;;;;;;5028562;28;20091;-81
2022/09/20 11:06:36;;;;;;;3.43;1.50;;;19.90;96.90;;;;;;5052757;28;20172;-80
2022/09/20 11:09:05;;;;;;;3.88;1.50;;;20.00;97.80;;;;;;5054683;28;20509;-81
2022/09/20 11:11:39;;;;;;;3.08;1.58;;;20.00;99.10;;;;;;5070491;28;20027;-81
2022/09/20 11:14:32;;;;;;;3.75;1.90;;;20.10;98.70;;;;;;5051321;28;20277;-82
2022/09/20 11:17:15;;;;;;;2.92;1.50;;;20.20;97.40;;;;;;5039331;28;20024;-80
2022/09/20 11:19:56;;;;;;;2.67;1.47;;;20.40;98.90;;;;;;5055093;28;20106;-81
2022/09/20 11:22:28;;;;;;;3.38;1.50;;;20.50;97.20;;;;;;5056446;28;20019;-81
2022/09/20 11:25:27;;;;;;;2.72;1.60;;;20.60;99.10;;;;;;5054369;28;20027;-81
2022/09/20 11:27:57;;;;;;;3.60;1.50;;;20.70;98.50;;;;;;5051498;28;20432;-80
2022/09/20 11:30:23;;;;;;;4.35;1.50;;;20.80;98.50;;;;;;5063817;28;20555;-80
2022/09/20 11:32:52;;;;;;;3.57;1.40;;;20.90;98.30;;;;;;5075897;27;20024;-80
2022/09/20 11:35:36;;;;;;;2.30;1.10;;;20.90;97.50;;;;;;5055581;28;20613;-81
2022/09/20 11:38:09;;;;;;;2.38;1.10;;;20.90;95.50;;;;;;5052337;28;20373;-81
2022/09/20 11:40:40;;;;;;;1.75;0.90;;;20.90;96.40;;;;;;5049009;28;20255;-81
2022/09/20 11:43:08;;;;;;;1.83;1.03;;;20.90;96.90;;;;;;5065273;28;20324;-80
2022/09/20 11:45:36;;;;;;;2.63;1.30;;;20.90;97.60;;;;;;5042952;28;20426;-80
2022/09/20 11:48:08;;;;;;;2.85;1.30;;;21.00;97.90;;;;;;5067018;28;20051;-81
2022/09/20 11:50:55;;;;;;;3.22;1.25;;;21.10;97.10;;;;;;5030827;28;20081;-81
2022/09/20 11:53:46;;;;;;;1.33;0.98;;;21.20;96.00;;;;;;5068260;28;20434;-81
2022/09/20 11:56:21;;;;;;;3.03;1.03;;;21.40;95.90;;;;;;5062923;28;20233;-81
2022/09/20 11:58:54;;;;;;;1.80;0.90;;;21.70;97.80;;;;;;5060005;28;20101;-83
2022/09/20 12:01:33;;;;;;;1.98;0.90;;;21.90;97.50;;;;;;5050037;28;20503;-81
2022/09/20 12:04:25;;;;;;;3.08;0.80;;;22.00;96.50;;;;;;5067697;28;20718;-81
2022/09/20 12:07:21;;;;;;;2.08;0.70;;;22.20;95.70;;;;;;5063088;27;20060;-81
2022/09/20 12:09:57;;;;;;;2.63;0.80;;;22.30;94.10;;;;;;5069780;28;20055;-81
2022/09/20 12:12:40;;;;;;;1.88;0.80;;;22.40;94.50;;;;;;5053066;28;20437;-82
2022/09/20 12:15:26;;;;;;;2.00;0.70;;;22.40;95.20;;;;;;5062952;28;20024;-80
2022/09/20 12:17:51;;;;;;;2.33;0.80;;;22.40;93.30;;;;;;5037361;28;20037;-81
2022/09/20 12:20:37;;;;;;;2.23;0.80;;;22.40;95.80;;;;;;5047576;28;20094;-81
2022/09/20 12:23:37;;;;;;;1.35;0.80;;;22.40;93.20;;;;;;5051472;28;20335;-81
2022/09/20 12:26:12;;;;;;;1.92;0.80;;;22.50;93.30;;;;;;5061224;28;20032;-82
2022/09/20 12:28:42;;;;;;;2.40;0.80;;;22.50;94.20;;;;;;5066490;28;20114;-81
2022/09/20 12:31:30;;;;;;;2.42;1.00;;;22.70;96.70;;;;;;5022786;28;20574;-81
2022/09/20 12:33:58;;;;;;;2.17;1.15;;;22.80;93.80;;;;;;5042904;28;20020;-83
2022/09/20 12:36:25;;;;;;;2.22;0.90;;;23.00;97.00;;;;;;5055912;28;20035;-81
2022/09/20 12:39:12;;;;;;;1.17;0.88;;;23.20;96.70;;;;;;5053871;28;20036;-80
2022/09/20 12:41:59;;;;;;;2.60;0.90;;;23.50;93.30;;;;;;5051467;28;20031;-82
2022/09/20 12:44:29;;;;;;;1.02;0.80;;;23.60;92.80;;;;;;5074033;28;20024;-81
2022/09/20 12:47:09;;;;;;;2.28;0.80;;;23.70;94.70;;;;;;5034739;28;20055;-81
2022/09/20 12:52:49;;;;;;;1.48;0.70;;;23.80;94.20;;;;;;5078525;27;20082;-80
2022/09/20 12:55:45;;;;;;;1.53;0.70;;;23.70;91.30;;;;;;5069558;28;20020;-83
2022/09/20 12:58:14;;;;;;;1.88;0.77;;;23.70;91.20;;;;;;5060782;28;20039;-81
2022/09/20 13:00:56;;;;;;;1.63;0.80;;;23.60;93.30;;;;;;5070125;28;20126;-81
2022/09/20 13:03:34;;;;;;;2.85;0.90;;;23.60;90.40;;;;;;5064602;28;20063;-81
2022/09/20 13:06:05;;;;;;;1.80;1.00;;;23.50;90.80;;;;;;5034611;28;20028;-82
2022/09/20 13:08:48;;;;;;;2.50;0.83;;;23.50;90.80;;;;;;5070684;28;20437;-81
2022/09/20 13:11:17;;;;;;;2.47;1.00;;;23.50;90.00;;;;;;5062610;28;20145;-81
2022/09/20 13:13:45;;;;;;;1.98;1.02;;;23.30;91.40;;;;;;5056069;28;20056;-82
2022/09/20 13:16:38;;;;;;;1.70;1.25;;;23.30;91.90;;;;;;5063609;28;20104;-81
2022/09/20 13:19:21;;;;;;;2.38;1.60;;;23.20;90.30;;;;;;5066509;27;20740;-82
2022/09/20 13:21:59;;;;;;;3.07;1.53;;;23.10;89.20;;;;;;5043238;28;20036;-80
2022/09/20 13:24:30;;;;;;;3.00;1.60;;;23.10;90.30;;;;;;5064871;28;20032;-80
2022/09/20 13:27:05;;;;;;;2.83;1.42;;;23.10;91.80;;;;;;5047818;28;20203;-81
2022/09/20 13:29:43;;;;;;;3.13;1.52;;;23.10;91.30;;;;;;5044373;28;20233;-81
2022/09/20 13:32:25;;;;;;;3.63;1.63;;;23.10;90.70;;;;;;5050325;28;20707;-80
2022/09/20 13:35:09;;;;;;;3.27;1.60;;;23.10;89.50;;;;;;5050134;28;20180;-82
2022/09/20 13:37:45;;;;;;;2.58;1.05;;;23.10;90.20;;;;;;5046110;28;20047;-81
2022/09/20 13:40:24;;;;;;;1.63;1.10;;;23.10;91.30;;;;;;5044441;28;20507;-81
2022/09/20 13:42:51;;;;;;;2.75;1.20;;;23.10;90.40;;;;;;5042302;28;20224;-82
2022/09/20 13:45:19;;;;;;;2.00;1.10;;;23.10;91.50;;;;;;5090746;28;20070;-81
2022/09/20 13:47:51;;;;;;;1.50;0.80;;;23.10;91.70;;;;;;5049657;28;20335;-83
2022/09/20 13:50:22;;;;;;;1.10;0.80;;;23.10;90.80;;;;;;5059152;28;20555;-80
2022/09/20 13:52:51;;;;;;;2.70;0.90;;;23.10;90.50;;;;;;5072325;28;20412;-81
2022/09/20 13:55:27;;;;;;;3.92;1.00;;;23.10;90.80;;;;;;5040556;28;20016;-82
2022/09/20 13:57:55;;;;;;;1.73;0.95;;;23.00;90.60;;;;;;5067563;28;20078;-81